Meshoppen, Pennsylvania
Current Conditions -  °F | °C
As of 10:54 AM on Saturday 22 Nov 2014 (Local Time) from KAVP Reporting Station
Clear Clear  
Wind Chill: 26°   Ceiling: Unl
Heat Index: 34°   Visibility: 10mi
Dew Point: 11°   Wind: 10mph
Humidity: 38%   Direction: 240°WSW
Pressure: 30.33"   Gusts: NA
Location:  41.61°N, 76.05°W
Report Text: KAVP 221554Z AUTO 24009KT 10SM CLR 01/M12 A3033 RMK AO2 SLP280 T00111117
Loading
Personal Weather Stations






























Interactive Weather Map New forecast layout! Learn more

10-Day Weather Forecast

Advertisements
Track Severe Weather on mobile